Green Bush, Kansas
Current Conditions -  °F | °C
As of 9:55 AM on Friday 24 Oct 2014 (Local Time) from KPTS Reporting Station
Clear Clear  
Wind Chill: 61°   Ceiling: Unl
Heat Index: 61°   Visibility: 10mi
Dew Point: 59°   Wind: 9mph
Humidity: 93%   Direction: 220°SW
Pressure: 30.1"   Gusts: NA
Location:  37.5057°N, 94.9338°W
Report Text: KPTS 241455Z AUTO 22008KT 10SM CLR 16/15 A3010 RMK AO2 T01590148
Loading
Personal Weather Stations






























Interactive Weather Map
Tropical Storm Tracking
New forecast layout! Learn more

10-Day Weather Forecast

Advertisements
Track Severe Weather on mobile